Time;durP1;ratioP1;P1;durP2;ratioP2;P2;SDS_P1;SDS_P2;PMS_P1;PMS_P2;Temp;Humidity;BMP_temperature;BMP_pressure;BME280_temperature;BME280_humidity;BME280_pressure;Samples;Min_cycle;Max_cycle;Signal;HPM_P1;HPM_P2
2023/02/21 02:14:38;0.00;0.00;0.62;0.00;0.00;0.62;2.60;2.30;;;22.20;25.40;;;;;;2260563;61;20420;-64
2023/02/21 02:17:37;0.00;0.00;0.62;0.00;0.00;0.62;2.77;2.40;;;22.10;25.30;;;;;;2259436;61;20466;-65
2023/02/21 02:21:06;0.00;0.00;0.62;0.00;0.00;0.62;2.30;1.80;;;22.10;25.30;;;;;;2257658;61;20389;-64
2023/02/21 02:24:31;0.00;0.00;0.62;0.00;0.00;0.62;2.27;1.93;;;22.20;25.40;;;;;;2261562;61;20361;-64
2023/02/21 02:27:43;0.00;0.00;0.62;0.00;0.00;0.62;2.77;2.20;;;22.20;25.40;;;;;;2257814;61;20370;-64
2023/02/21 02:30:49;0.00;0.00;0.62;0.00;0.00;0.62;2.40;2.00;;;22.20;25.40;;;;;;2258066;61;20370;-64
2023/02/21 02:34:06;0.00;0.00;0.62;0.00;0.00;0.62;3.07;2.17;;;22.10;25.30;;;;;;2258191;61;20452;-64
2023/02/21 02:37:00;0.00;0.00;0.62;0.00;0.00;0.62;2.80;2.17;;;22.10;25.30;;;;;;2258788;61;20369;-64
2023/02/21 02:39:54;0.00;0.00;0.62;0.00;0.00;0.62;2.80;2.27;;;22.20;25.40;;;;;;2258784;61;20374;-64
2023/02/21 02:42:55;0.00;0.00;0.62;0.00;0.00;0.62;2.60;2.07;;;22.20;25.40;;;;;;2254738;61;20523;-64
2023/02/21 02:45:46;0.00;0.00;0.62;0.00;0.00;0.62;2.47;2.27;;;22.20;25.40;;;;;;2261231;61;20768;-64
2023/02/21 02:48:35;0.00;0.00;0.62;0.00;0.00;0.62;2.43;1.90;;;22.20;25.40;;;;;;2258817;61;20373;-64
2023/02/21 02:51:21;0.00;0.00;0.62;0.00;0.00;0.62;2.57;2.10;;;22.20;25.40;;;;;;2255035;61;20625;-65
2023/02/21 02:54:08;0.00;0.00;0.62;0.00;0.00;0.62;2.50;2.30;;;22.20;25.40;;;;;;2261323;61;20431;-64
2023/02/21 02:56:53;0.00;0.00;0.62;0.00;0.00;0.62;2.53;1.80;;;22.20;25.40;;;;;;2260627;61;20478;-66
2023/02/21 02:59:44;0.00;0.00;0.62;0.00;0.00;0.62;2.40;2.10;;;22.20;25.40;;;;;;2257676;61;20409;-64
2023/02/21 03:03:05;0.00;0.00;0.62;0.00;0.00;0.62;2.47;2.07;;;22.20;25.40;;;;;;2261432;61;20386;-64
2023/02/21 03:06:13;0.00;0.00;0.62;0.00;0.00;0.62;3.83;2.77;;;22.20;25.40;;;;;;2258410;61;20426;-62
2023/02/21 03:09:13;0.00;0.00;0.62;0.00;0.00;0.62;2.43;1.93;;;22.20;25.40;;;;;;2258453;61;20821;-66
2023/02/21 03:12:07;0.00;0.00;0.62;0.00;0.00;0.62;2.33;2.10;;;22.10;25.30;;;;;;2258092;61;20386;-64
2023/02/21 03:15:00;0.00;0.00;0.62;0.00;0.00;0.62;2.63;2.10;;;22.20;25.40;;;;;;2258013;61;20425;-64
2023/02/21 03:17:53;0.00;0.00;0.62;0.00;0.00;0.62;2.43;2.07;;;22.20;25.40;;;;;;2258448;61;20459;-65
2023/02/21 03:20:40;0.00;0.00;0.62;0.00;0.00;0.62;1.90;1.50;;;22.20;25.40;;;;;;2260631;61;20381;-64
2023/02/21 03:23:31;0.00;0.00;0.62;0.00;0.00;0.62;2.93;2.00;;;22.20;25.30;;;;;;2258479;61;20827;-64
2023/02/21 03:26:18;0.00;0.00;0.62;0.00;0.00;0.62;2.20;2.00;;;22.20;25.40;;;;;;2258086;61;20405;-64
2023/02/21 03:29:06;0.00;0.00;0.62;0.00;0.00;0.62;2.30;1.93;;;22.20;25.40;;;;;;2258120;61;20370;-64
2023/02/21 03:31:59;0.00;0.00;0.62;0.00;0.00;0.62;3.10;2.20;;;22.20;25.40;;;;;;2258673;61;20421;-64
2023/02/21 03:34:44;0.00;0.00;0.62;0.00;0.00;0.62;2.37;2.13;;;22.20;25.40;;;;;;2257642;61;20444;-64
2023/02/21 03:37:35;0.00;0.00;0.62;0.00;0.00;0.62;2.10;1.80;;;22.20;25.40;;;;;;2258723;61;20595;-64
2023/02/21 03:40:23;0.00;0.00;0.62;0.00;0.00;0.62;2.10;1.80;;;22.20;25.40;;;;;;2260405;61;20963;-64
2023/02/21 03:43:10;0.00;0.00;0.62;0.00;0.00;0.62;3.13;2.17;;;22.20;25.40;;;;;;2257657;61;20386;-65
2023/02/21 03:46:10;0.00;0.00;0.62;0.00;0.00;0.62;2.10;1.80;;;22.20;25.40;;;;;;2258553;61;20366;-64
2023/02/21 03:48:55;0.00;0.00;0.62;0.00;0.00;0.62;3.00;2.13;;;22.20;25.40;;;;;;2257166;61;20366;-64
2023/02/21 03:51:45;0.00;0.00;0.62;0.00;0.00;0.62;2.43;1.90;;;22.20;25.40;;;;;;2261139;61;20378;-64
2023/02/21 03:54:29;0.00;0.00;0.62;0.00;0.00;0.62;2.03;1.83;;;22.20;25.40;;;;;;2261429;61;20466;-64
2023/02/21 03:57:17;0.00;0.00;0.62;0.00;0.00;0.62;2.23;1.90;;;22.20;25.40;;;;;;2260839;61;20361;-64
2023/02/21 04:00:07;0.00;0.00;0.62;0.00;0.00;0.62;1.97;1.67;;;22.20;25.40;;;;;;2261136;61;20365;-64
2023/02/21 04:03:00;0.00;0.00;0.62;0.00;0.00;0.62;2.13;1.70;;;22.20;25.40;;;;;;2261067;61;20425;-64
2023/02/21 04:05:56;0.00;0.00;0.62;0.00;0.00;0.62;2.93;1.90;;;22.20;25.40;;;;;;2261070;61;20358;-64
2023/02/21 04:08:42;0.00;0.00;0.62;0.00;0.00;0.62;2.20;1.80;;;22.20;25.40;;;;;;2258765;61;20350;-64
2023/02/21 04:11:27;0.00;0.00;0.62;0.00;0.00;0.62;2.20;1.47;;;22.20;25.40;;;;;;2257590;61;20482;-64
2023/02/21 04:14:12;0.00;0.00;0.62;0.00;0.00;0.62;2.10;1.70;;;22.20;25.40;;;;;;2260917;61;20385;-64
2023/02/21 04:16:59;0.00;0.00;0.62;0.00;0.00;0.62;3.67;2.00;;;22.20;25.40;;;;;;2261557;61;20404;-67
2023/02/21 04:19:50;0.00;0.00;0.62;0.00;0.00;0.62;2.50;1.80;;;22.20;25.40;;;;;;2260163;61;20821;-64
2023/02/21 04:22:39;0.00;0.00;0.62;0.00;0.00;0.62;2.70;2.20;;;22.20;25.40;;;;;;2261337;61;20918;-64
2023/02/21 04:25:24;0.00;0.00;0.62;0.00;0.00;0.62;3.03;2.00;;;22.20;25.40;;;;;;2257650;61;20362;-67
2023/02/21 04:28:15;0.00;0.00;0.62;0.00;0.00;0.62;2.40;1.93;;;22.20;25.40;;;;;;2258498;61;20398;-64
2023/02/21 04:31:00;0.00;0.00;0.62;0.00;0.00;0.62;2.77;2.23;;;22.20;25.40;;;;;;2260983;61;20437;-64
2023/02/21 04:33:48;0.00;0.00;0.62;0.00;0.00;0.62;2.27;2.07;;;22.20;25.40;;;;;;2260552;61;20393;-67
2023/02/21 04:36:40;0.00;0.00;0.62;0.00;0.00;0.62;2.53;2.10;;;22.20;25.40;;;;;;2258238;61;20475;-64
2023/02/21 04:39:25;0.00;0.00;0.62;0.00;0.00;0.62;2.53;1.70;;;22.20;25.40;;;;;;2258499;61;20399;-64
2023/02/21 04:42:10;0.00;0.00;0.62;0.00;0.00;0.62;2.80;2.20;;;22.20;25.40;;;;;;2257642;61;20377;-64
2023/02/21 04:44:54;0.00;0.00;0.62;0.00;0.00;0.62;2.07;1.50;;;22.20;25.40;;;;;;2261025;61;20366;-64
2023/02/21 04:47:39;0.00;0.00;0.62;0.00;0.00;0.62;2.57;2.17;;;22.20;25.40;;;;;;2260538;61;20362;-64
2023/02/21 04:50:27;0.00;0.00;0.62;0.00;0.00;0.62;2.47;1.67;;;22.10;25.30;;;;;;2258355;61;20378;-66
2023/02/21 04:53:12;0.00;0.00;0.62;0.00;0.00;0.62;1.90;1.60;;;22.20;25.40;;;;;;2258587;61;20401;-64
2023/02/21 04:55:57;0.00;0.00;0.62;0.00;0.00;0.62;2.20;1.80;;;22.20;25.40;;;;;;2257980;61;20455;-64
2023/02/21 04:58:43;0.00;0.00;0.62;0.00;0.00;0.62;2.10;1.73;;;22.20;25.40;;;;;;2258704;61;20366;-65
2023/02/21 05:01:30;0.00;0.00;0.62;0.00;0.00;0.62;2.10;1.73;;;22.20;25.40;;;;;;2258675;61;20388;-65
2023/02/21 05:04:15;0.00;0.00;0.62;0.00;0.00;0.62;2.30;1.57;;;22.20;25.40;;;;;;2257997;61;20428;-64
2023/02/21 05:07:01;0.00;0.00;0.62;0.00;0.00;0.62;2.43;1.97;;;22.20;25.40;;;;;;2258972;61;20366;-64
2023/02/21 05:09:46;0.00;0.00;0.62;0.00;0.00;0.62;2.33;1.83;;;22.20;25.40;;;;;;2257523;61;20366;-64
2023/02/21 05:12:30;0.00;0.00;0.62;0.00;0.00;0.62;2.30;2.00;;;22.20;25.40;;;;;;2258690;61;20385;-64
2023/02/21 05:15:16;0.00;0.00;0.62;0.00;0.00;0.62;2.80;2.30;;;22.20;25.40;;;;;;2258743;61;20777;-64
2023/02/21 05:18:00;0.00;0.00;0.62;0.00;0.00;0.62;2.50;2.23;;;22.10;25.40;;;;;;2258100;61;20269;-64
2023/02/21 05:20:45;0.00;0.00;0.62;0.00;0.00;0.62;2.50;2.30;;;22.20;25.40;;;;;;2258182;61;20373;-64
2023/02/21 05:23:34;0.00;0.00;0.62;0.00;0.00;0.62;2.63;1.90;;;22.20;25.40;;;;;;2256371;61;20934;-61
2023/02/21 05:26:19;0.00;0.00;0.62;0.00;0.00;0.62;1.90;1.70;;;22.20;25.40;;;;;;2255822;61;20374;-62
2023/02/21 05:29:04;0.00;0.00;0.62;0.00;0.00;0.62;2.87;2.33;;;22.20;25.30;;;;;;2256195;61;20397;-61
2023/02/21 05:31:49;0.00;0.00;0.62;0.00;0.00;0.62;2.13;1.93;;;22.20;25.40;;;;;;2255873;61;20401;-64
2023/02/21 05:34:33;0.00;0.00;0.62;0.00;0.00;0.62;2.80;2.10;;;22.20;25.40;;;;;;2255880;61;20440;-63
2023/02/21 05:37:20;0.00;0.00;0.62;0.00;0.00;0.62;2.13;1.90;;;22.20;25.40;;;;;;2256302;61;20394;-61
2023/02/21 05:40:09;0.00;0.00;0.62;0.00;0.00;0.62;2.33;1.80;;;22.20;25.40;;;;;;2255055;61;20846;-65
2023/02/21 05:42:54;0.00;0.00;0.62;0.00;0.00;0.62;2.83;2.20;;;22.20;25.40;;;;;;2256700;61;20837;-61
2023/02/21 05:45:39;0.00;0.00;0.62;0.00;0.00;0.62;2.40;1.90;;;22.20;25.40;;;;;;2257060;61;20361;-61
2023/02/21 05:48:24;0.00;0.00;0.62;0.00;0.00;0.62;2.47;1.97;;;22.20;25.40;;;;;;2258636;61;20365;-62
2023/02/21 05:51:09;0.00;0.00;0.62;0.00;0.00;0.62;2.13;1.80;;;22.20;25.40;;;;;;2256492;61;20384;-61
2023/02/21 05:53:54;0.00;0.00;0.62;0.00;0.00;0.62;3.13;2.33;;;22.20;25.40;;;;;;2256454;61;20378;-61
2023/02/21 05:56:41;0.00;0.00;0.62;0.00;0.00;0.62;2.20;1.80;;;22.20;25.40;;;;;;2256680;61;20369;-59
2023/02/21 05:59:26;0.00;0.00;0.62;0.00;0.00;0.62;2.17;1.60;;;22.20;25.40;;;;;;2256589;61;20450;-59
2023/02/21 06:02:11;0.00;0.00;0.62;0.00;0.00;0.62;2.20;1.77;;;22.20;25.40;;;;;;2255899;61;20497;-60
2023/02/21 06:04:56;0.00;0.00;0.62;0.00;0.00;0.62;2.60;1.90;;;22.20;25.40;;;;;;2258808;61;20762;-63
2023/02/21 06:07:40;0.00;0.00;0.62;0.00;0.00;0.62;2.67;2.20;;;22.20;25.40;;;;;;2257068;61;21190;-59
2023/02/21 06:10:25;0.00;0.00;0.62;0.00;0.00;0.62;2.30;1.97;;;22.20;25.40;;;;;;2255676;61;20361;-62
2023/02/21 06:13:13;0.00;0.00;0.62;0.00;0.00;0.62;3.70;2.00;;;22.10;25.30;;;;;;2256718;61;20389;-67
2023/02/21 06:15:58;0.00;0.00;0.62;0.00;0.00;0.62;1.93;1.60;;;22.20;25.40;;;;;;2256387;61;21106;-61
2023/02/21 06:18:43;0.00;0.00;0.62;0.00;0.00;0.62;3.07;2.33;;;22.20;25.40;;;;;;2256143;61;20450;-61
2023/02/21 06:21:28;0.00;0.00;0.62;0.00;0.00;0.62;2.93;2.23;;;22.20;25.40;;;;;;2256624;61;20366;-60
2023/02/21 06:24:13;0.00;0.00;0.62;0.00;0.00;0.62;2.40;1.87;;;22.20;25.40;;;;;;2255873;61;20394;-60
2023/02/21 06:26:57;0.00;0.00;0.62;0.00;0.00;0.62;2.40;2.13;;;22.20;25.40;;;;;;2256259;61;20362;-60
2023/02/21 06:29:43;0.00;0.00;0.62;0.00;0.00;0.62;2.33;1.97;;;22.20;25.40;;;;;;2256487;61;20365;-61
2023/02/21 06:32:28;0.00;0.00;0.62;0.00;0.00;0.62;2.20;1.80;;;22.20;25.50;;;;;;2255886;61;20386;-60
2023/02/21 06:35:13;0.00;0.00;0.62;0.00;0.00;0.62;2.00;1.80;;;22.20;25.40;;;;;;2256113;61;20921;-63
2023/02/21 06:37:57;0.00;0.00;0.62;0.00;0.00;0.62;2.70;2.30;;;22.20;25.40;;;;;;2256637;61;20377;-59
2023/02/21 06:40:43;0.00;0.00;0.62;0.00;0.00;0.62;2.77;1.70;;;22.20;25.40;;;;;;2257819;61;20650;-61
2023/02/21 06:43:28;0.00;0.00;0.62;0.00;0.00;0.62;2.93;1.83;;;22.20;25.40;;;;;;2256528;61;20397;-62
2023/02/21 06:46:17;0.00;0.00;0.62;0.00;0.00;0.62;2.33;1.83;;;22.20;25.40;;;;;;2256019;61;20354;-61
2023/02/21 06:49:03;0.00;0.00;0.62;0.00;0.00;0.62;2.30;1.90;;;22.20;25.50;;;;;;2256075;61;20434;-61
2023/02/21 06:51:48;0.00;0.00;0.62;0.00;0.00;0.62;2.20;1.77;;;22.10;25.40;;;;;;2256674;61;20425;-62
2023/02/21 06:54:33;0.00;0.00;0.62;0.00;0.00;0.62;2.50;2.10;;;22.20;25.50;;;;;;2255669;61;20402;-59
2023/02/21 06:57:18;0.00;0.00;0.62;0.00;0.00;0.62;2.20;1.80;;;22.20;25.50;;;;;;2256578;61;20401;-61
2023/02/21 07:00:07;0.00;0.00;0.62;0.00;0.00;0.62;2.33;1.93;;;22.20;25.50;;;;;;2256304;61;20805;-63
2023/02/21 07:02:52;0.00;0.00;0.62;0.00;0.00;0.62;2.37;1.73;;;22.20;25.50;;;;;;2258210;61;20416;-60
2023/02/21 07:05:38;0.00;0.00;0.62;0.00;0.00;0.62;2.40;1.90;;;22.20;25.50;;;;;;2256734;61;20405;-60
2023/02/21 07:08:24;0.00;0.00;0.62;0.00;0.00;0.62;2.20;1.80;;;22.20;25.50;;;;;;2255808;61;20397;-63
2023/02/21 07:11:09;0.00;0.00;0.62;0.00;0.00;0.62;3.07;2.10;;;22.20;25.50;;;;;;2256021;61;20477;-61
2023/02/21 07:13:55;0.00;0.00;0.62;0.00;0.00;0.62;2.33;2.00;;;22.20;25.50;;;;;;2256582;61;20432;-62
2023/02/21 07:16:40;0.00;0.00;0.62;0.00;0.00;0.62;2.30;1.67;;;22.20;25.50;;;;;;2256044;61;20451;-59
2023/02/21 07:19:26;0.00;0.00;0.62;0.00;0.00;0.62;2.10;1.80;;;22.20;25.50;;;;;;2256036;61;20902;-60
2023/02/21 07:22:11;0.00;0.00;0.62;0.00;0.00;0.62;2.40;1.97;;;22.20;25.50;;;;;;2256138;61;20536;-65
2023/02/21 07:24:56;0.00;0.00;0.62;0.00;0.00;0.62;2.17;1.80;;;22.20;25.50;;;;;;2256077;61;20362;-58
2023/02/21 07:27:41;0.00;0.00;0.62;0.00;0.00;0.62;2.40;2.00;;;22.20;25.50;;;;;;2256654;61;20498;-61
2023/02/21 07:30:25;0.00;0.00;0.62;0.00;0.00;0.62;1.80;1.40;;;22.20;25.50;;;;;;2255616;61;20366;-65
2023/02/21 07:33:10;0.00;0.00;0.62;0.00;0.00;0.62;2.13;1.63;;;22.20;25.50;;;;;;2256366;61;20401;-59
2023/02/21 07:35:56;0.00;0.00;0.62;0.00;0.00;0.62;2.70;1.87;;;22.20;25.50;;;;;;2256570;61;20409;-63
2023/02/21 07:38:41;0.00;0.00;0.62;0.00;0.00;0.62;2.40;2.00;;;22.20;25.50;;;;;;2255880;61;20418;-61
2023/02/21 07:41:25;0.00;0.00;0.62;0.00;0.00;0.62;2.30;1.90;;;22.20;25.50;;;;;;2256234;61;20362;-62
2023/02/21 07:44:10;0.00;0.00;0.62;0.00;0.00;0.62;2.67;1.83;;;22.20;25.50;;;;;;2256217;61;20382;-64
2023/02/21 07:46:55;0.00;0.00;0.62;0.00;0.00;0.62;2.70;2.23;;;22.20;26.10;;;;;;2255946;61;20408;-64
2023/02/21 07:49:40;0.00;0.00;0.62;0.00;0.00;0.62;2.50;2.07;;;22.20;25.50;;;;;;2256299;61;20404;-65
2023/02/21 07:52:27;0.00;0.00;0.62;0.00;0.00;0.62;2.17;1.77;;;22.20;25.50;;;;;;2255943;61;20431;-65
2023/02/21 07:55:12;0.00;0.00;0.62;0.00;0.00;0.62;2.33;2.10;;;22.20;25.50;;;;;;2256239;61;20437;-65
2023/02/21 07:57:57;0.00;0.00;0.62;0.00;0.00;0.62;2.27;1.73;;;22.20;25.50;;;;;;2256476;61;20369;-60
2023/02/21 08:00:42;0.00;0.00;0.62;0.00;0.00;0.62;2.90;2.23;;;22.20;25.50;;;;;;2254948;61;20464;-64
2023/02/21 08:03:26;0.00;0.00;0.62;0.00;0.00;0.62;2.97;2.53;;;22.20;25.50;;;;;;2258427;61;20944;-62
2023/02/21 08:06:11;0.00;0.00;0.62;0.00;0.00;0.62;2.10;1.77;;;22.20;25.50;;;;;;2256423;61;20449;-67
2023/02/21 08:08:57;0.00;0.00;0.62;0.00;0.00;0.62;3.57;2.10;;;22.20;25.50;;;;;;2255514;61;20412;-62
2023/02/21 08:11:42;0.00;0.00;0.62;0.00;0.00;0.62;2.63;2.20;;;22.20;25.50;;;;;;2256392;61;20420;-61
2023/02/21 08:14:26;0.00;0.00;0.62;0.00;0.00;0.62;2.77;2.33;;;22.20;25.50;;;;;;2256115;61;20385;-62
2023/02/21 08:17:12;0.00;0.00;0.62;0.00;0.00;0.62;2.13;1.50;;;22.20;25.50;;;;;;2256157;61;20369;-63
2023/02/21 08:19:57;0.00;0.00;0.62;0.00;0.00;0.62;2.93;2.60;;;22.20;25.50;;;;;;2256135;61;20366;-64
2023/02/21 08:22:42;0.00;0.00;0.62;0.00;0.00;0.62;2.70;2.50;;;22.20;25.60;;;;;;2254819;61;20549;-63
2023/02/21 08:25:28;0.00;0.00;0.62;0.00;0.00;0.62;3.73;2.40;;;22.20;25.50;;;;;;2256215;61;20364;-60
2023/02/21 08:28:14;0.00;0.00;0.62;0.00;0.00;0.62;3.30;2.63;;;22.20;25.50;;;;;;2256410;61;20979;-62
2023/02/21 08:30:59;0.00;0.00;0.62;0.00;0.00;0.62;3.60;3.10;;;22.20;25.50;;;;;;2254689;61;20365;-68
2023/02/21 08:33:44;0.00;0.00;0.62;0.00;0.00;0.62;2.90;2.50;;;22.20;25.60;;;;;;2258485;61;20909;-63
2023/02/21 08:36:34;0.00;0.00;0.62;0.00;0.00;0.62;3.30;2.77;;;22.20;25.50;;;;;;2256327;61;20457;-65
2023/02/21 08:39:19;0.00;0.00;0.62;0.00;0.00;0.62;3.70;3.00;;;22.20;25.50;;;;;;2255467;61;20429;-66
2023/02/21 08:42:05;0.00;0.00;0.62;0.00;0.00;0.62;3.50;2.73;;;22.20;25.50;;;;;;2256112;61;20436;-64
2023/02/21 08:44:50;0.00;0.00;0.62;0.00;0.00;0.62;3.67;2.60;;;22.20;25.50;;;;;;2255300;61;20410;-63
2023/02/21 08:47:35;0.00;0.00;0.62;0.00;0.00;0.62;2.87;2.43;;;22.20;25.60;;;;;;2256000;61;20385;-63
2023/02/21 08:50:22;0.00;0.00;0.62;0.00;0.00;0.62;3.53;2.53;;;22.20;25.50;;;;;;2255948;61;20361;-64
2023/02/21 08:53:10;0.00;0.00;0.62;0.00;0.00;0.62;3.47;2.80;;;22.20;25.50;;;;;;2255551;61;20416;-64
2023/02/21 08:55:55;0.00;0.00;0.62;0.00;0.00;0.62;3.43;2.50;;;22.20;25.60;;;;;;2256165;61;20470;-64
2023/02/21 08:58:41;0.00;0.00;0.62;0.00;0.00;0.62;4.40;2.77;;;22.20;25.50;;;;;;2256177;61;20438;-64
2023/02/21 09:01:32;0.00;0.00;0.62;0.00;0.00;0.62;3.20;2.50;;;22.20;25.60;;;;;;2255346;61;20366;-64
2023/02/21 09:04:17;0.00;0.00;0.62;0.00;0.00;0.62;3.50;2.83;;;22.20;25.60;;;;;;2256265;61;20424;-66
2023/02/21 09:07:01;0.00;0.00;0.62;0.00;0.00;0.62;3.50;2.70;;;22.20;25.60;;;;;;2255303;61;20401;-64
2023/02/21 09:09:47;0.00;0.00;0.62;0.00;0.00;0.62;3.40;2.80;;;22.20;25.60;;;;;;2255684;61;20413;-63
2023/02/21 09:12:31;0.00;0.00;0.62;0.00;0.00;0.62;3.67;2.80;;;22.20;25.60;;;;;;2256512;61;20521;-61
2023/02/21 09:15:18;0.00;0.00;0.62;0.00;0.00;0.62;3.37;2.80;;;22.20;25.60;;;;;;2255489;61;20460;-64
2023/02/21 09:18:03;0.00;0.00;0.62;0.00;0.00;0.62;3.60;2.80;;;22.20;25.60;;;;;;2257464;61;20405;-64
2023/02/21 09:20:52;0.00;0.00;0.62;0.00;0.00;0.62;3.03;2.63;;;22.20;25.60;;;;;;2257020;61;20454;-61
2023/02/21 09:23:37;0.00;0.00;0.62;0.00;0.00;0.62;3.70;2.80;;;22.20;25.60;;;;;;2256598;61;20436;-64
2023/02/21 09:26:22;0.00;0.00;0.62;0.00;0.00;0.62;2.97;2.50;;;22.20;25.60;;;;;;2257518;61;20420;-64
2023/02/21 09:29:11;0.00;0.00;0.62;0.00;0.00;0.62;4.07;2.90;;;22.20;25.60;;;;;;2255357;61;20410;-64
2023/02/21 09:31:57;0.00;0.00;0.62;0.00;0.00;0.62;4.57;3.30;;;22.20;25.60;;;;;;2257493;61;20417;-63
2023/02/21 09:34:42;0.00;0.00;0.62;0.00;0.00;0.62;5.73;3.47;;;22.20;25.60;;;;;;2259826;61;20810;-63
2023/02/21 09:37:26;0.00;0.00;0.62;0.00;0.00;0.62;4.10;2.97;;;22.20;25.60;;;;;;2256892;61;20442;-62
2023/02/21 09:40:23;0.00;0.00;0.62;0.00;0.00;0.62;4.03;3.27;;;22.20;25.70;;;;;;2256881;61;20369;-65
2023/02/21 09:43:14;0.00;0.00;0.62;0.00;0.00;0.62;3.90;3.47;;;22.20;25.70;;;;;;2257249;61;20385;-62
2023/02/21 09:46:03;0.00;0.00;0.62;0.00;0.00;0.62;4.30;3.40;;;22.20;25.70;;;;;;2257080;61;20361;-63
2023/02/21 09:48:50;0.00;0.00;0.62;0.00;0.00;0.62;4.40;3.27;;;22.20;25.70;;;;;;2257769;61;20393;-62
2023/02/21 09:51:40;0.00;0.00;0.62;0.00;0.00;0.62;3.90;3.50;;;22.20;25.70;;;;;;2256454;61;20419;-63
2023/02/21 09:54:32;0.00;0.00;0.62;0.00;0.00;0.62;3.83;3.17;;;22.20;25.70;;;;;;2257213;61;20381;-63
2023/02/21 09:57:17;0.00;0.00;0.62;0.00;0.00;0.62;3.60;3.03;;;22.20;25.70;;;;;;2257097;61;20503;-64
2023/02/21 10:00:16;0.00;0.00;0.62;0.00;0.00;0.62;4.40;3.40;;;22.20;25.70;;;;;;2256532;61;20458;-63
2023/02/21 10:03:18;0.00;0.00;0.62;0.00;0.00;0.62;3.77;3.37;;;22.20;25.70;;;;;;2257487;61;20510;-64
2023/02/21 10:06:13;0.00;0.00;0.62;0.00;0.00;0.62;4.67;3.73;;;22.20;25.70;;;;;;2256469;61;21272;-63
2023/02/21 10:09:05;0.00;0.00;0.62;0.00;0.00;0.62;3.93;3.50;;;22.20;25.70;;;;;;2257076;61;20409;-63
2023/02/21 10:12:04;0.00;0.00;0.62;0.00;0.00;0.62;4.07;3.23;;;22.30;25.80;;;;;;2257501;61;20389;-63
2023/02/21 10:15:13;0.00;0.00;0.62;0.00;0.00;0.62;3.73;3.40;;;22.30;25.80;;;;;;2256919;61;20856;-63
2023/02/21 10:18:04;0.00;0.00;0.62;0.00;0.00;0.62;3.60;3.30;;;22.30;25.80;;;;;;2257607;61;20898;-68
2023/02/21 10:20:52;0.00;0.00;0.62;0.00;0.00;0.62;4.50;3.83;;;22.30;25.70;;;;;;2256082;61;20767;-63
2023/02/21 10:23:42;0.00;0.00;0.62;0.00;0.00;0.62;4.07;3.50;;;22.20;25.70;;;;;;2257327;61;20977;-64
2023/02/21 10:26:30;0.00;0.00;0.62;0.00;0.00;0.62;4.50;3.47;;;22.30;25.70;;;;;;2257201;61;20369;-63
2023/02/21 10:29:22;0.00;0.00;0.62;0.00;0.00;0.62;4.63;3.80;;;22.30;25.80;;;;;;2255465;61;20946;-64
2023/02/21 10:32:08;0.00;0.00;0.62;0.00;0.00;0.62;4.43;3.70;;;22.30;25.80;;;;;;2256256;61;20381;-64
2023/02/21 10:34:57;0.00;0.00;0.62;0.00;0.00;0.62;4.00;3.60;;;22.30;25.80;;;;;;2256411;61;20406;-63
2023/02/21 10:37:46;0.00;0.00;0.62;0.00;0.00;0.62;4.30;3.70;;;22.30;25.80;;;;;;2255979;61;20365;-64
2023/02/21 10:40:36;0.00;0.00;0.62;0.00;0.00;0.62;4.00;3.60;;;22.30;25.80;;;;;;2256502;61;20822;-62
2023/02/21 10:43:30;0.00;0.00;0.62;0.00;0.00;0.62;4.37;3.43;;;22.30;25.80;;;;;;2255631;61;20943;-63
2023/02/21 10:46:22;0.00;0.00;0.62;0.00;0.00;0.62;3.93;3.50;;;22.30;25.80;;;;;;2258670;61;20390;-63
2023/02/21 10:49:23;0.00;0.00;0.62;0.00;0.00;0.62;5.90;3.90;;;22.30;25.80;;;;;;2256089;61;20366;-68
2023/02/21 10:52:11;0.00;0.00;0.62;0.00;0.00;0.62;4.63;3.80;;;22.30;25.80;;;;;;2255801;61;20432;-65
2023/02/21 10:55:12;0.00;0.00;0.62;0.00;0.00;0.62;3.90;3.47;;;22.30;25.80;;;;;;2256671;61;20386;-63
2023/02/21 10:58:07;0.00;0.00;0.62;0.00;0.00;0.62;4.43;3.77;;;22.30;25.80;;;;;;2255825;61;20445;-63
2023/02/21 11:00:52;0.00;0.00;0.62;0.00;0.00;0.62;4.40;3.90;;;22.30;25.80;;;;;;2255893;61;20821;-67
2023/02/21 11:03:43;0.00;0.00;0.62;0.00;0.00;0.62;4.83;3.80;;;22.30;25.80;;;;;;2256769;61;20885;-64
2023/02/21 11:06:35;0.00;0.00;0.62;0.00;0.00;0.62;4.70;3.90;;;22.30;25.80;;;;;;2255837;61;20497;-63
2023/02/21 11:09:35;0.00;0.00;0.62;0.00;0.00;0.62;4.83;3.60;;;22.30;25.80;;;;;;2256369;61;20842;-64
2023/02/21 11:12:24;0.00;0.00;0.62;0.00;0.00;0.62;6.27;4.50;;;22.30;25.80;;;;;;2255878;61;20409;-65
2023/02/21 11:15:18;0.00;0.00;0.62;0.00;0.00;0.62;5.93;4.17;;;22.40;25.80;;;;;;2256112;61;20478;-65
2023/02/21 11:18:11;0.00;0.00;0.62;0.00;0.00;0.62;5.00;4.10;;;22.30;25.80;;;;;;2256803;61;20409;-64
2023/02/21 11:21:10;0.00;0.00;0.62;0.00;0.00;0.62;4.57;3.70;;;22.30;25.80;;;;;;2255463;61;20805;-63
2023/02/21 11:24:01;0.00;0.00;0.62;0.00;0.00;0.62;4.67;4.20;;;22.40;25.90;;;;;;2256538;61;20370;-64
2023/02/21 11:26:50;0.00;0.00;0.62;0.00;0.00;0.62;5.13;4.07;;;22.40;25.90;;;;;;2256588;61;21126;-66
2023/02/21 11:29:35;0.00;0.00;0.62;0.00;0.00;0.62;5.63;4.10;;;22.40;25.90;;;;;;2255520;61;20904;-62
2023/02/21 11:32:28;0.00;0.00;0.62;0.00;0.00;0.62;4.40;3.70;;;22.40;25.90;;;;;;2256762;61;20386;-63
2023/02/21 11:35:26;0.00;0.00;0.62;0.00;0.00;0.62;5.07;3.90;;;22.40;25.90;;;;;;2255303;61;20386;-63
2023/02/21 11:38:34;0.00;0.00;0.62;0.00;0.00;0.62;4.27;3.87;;;22.40;25.90;;;;;;2256400;61;20377;-65
2023/02/21 11:41:27;0.00;0.00;0.62;0.00;0.00;0.62;3.90;3.30;;;22.40;25.80;;;;;;2256078;61;20452;-63
2023/02/21 11:44:25;0.00;0.00;0.62;0.00;0.00;0.62;6.33;4.90;;;22.40;25.80;;;;;;2255104;61;20864;-65
2023/02/21 11:47:15;0.00;0.00;0.62;0.00;0.00;0.62;4.47;3.83;;;22.40;25.90;;;;;;2256598;61;20441;-64
2023/02/21 11:50:09;0.00;0.00;0.62;0.00;0.00;0.62;5.67;4.40;;;22.40;25.90;;;;;;2255319;61;20369;-63
2023/02/21 11:53:03;0.00;0.00;0.62;0.00;0.00;0.62;4.77;4.33;;;22.40;25.90;;;;;;2258522;61;20389;-62
2023/02/21 11:55:58;0.00;0.00;0.62;0.00;0.00;0.62;6.03;4.53;;;22.40;25.90;;;;;;2256537;61;20970;-62
2023/02/21 11:58:50;0.00;0.00;0.62;0.00;0.00;0.62;7.87;5.00;;;22.40;25.90;;;;;;2255572;61;20373;-64
2023/02/21 12:01:45;0.00;0.00;0.62;0.00;0.00;0.62;5.90;5.17;;;22.40;25.90;;;;;;2256461;61;20424;-69
2023/02/21 12:04:56;0.00;0.00;0.62;0.00;0.00;0.62;5.70;4.97;;;22.40;25.90;;;;;;2255439;61;20362;-63
2023/02/21 12:07:49;0.00;0.00;0.62;0.00;0.00;0.62;6.87;5.10;;;22.50;25.90;;;;;;2253077;61;20782;-64
2023/02/21 12:10:45;0.00;0.00;0.62;0.00;0.00;0.62;6.37;5.30;;;22.40;25.90;;;;;;2255961;61;20478;-63
2023/02/21 12:13:42;0.00;0.00;0.62;0.00;0.00;0.62;5.77;5.17;;;22.50;26.00;;;;;;2255729;61;20406;-64
2023/02/21 12:16:41;0.00;0.00;0.62;0.00;0.00;0.62;6.90;5.30;;;22.40;25.90;;;;;;2258640;61;20389;-62
2023/02/21 12:19:46;0.00;0.00;0.62;0.00;0.00;0.62;5.23;4.33;;;22.50;25.90;;;;;;2255066;61;20888;-64
2023/02/21 12:22:54;0.00;0.00;0.62;0.00;0.00;0.62;6.60;5.50;;;22.50;26.00;;;;;;2256115;61;20381;-63
2023/02/21 12:25:30;0.00;0.00;0.62;0.00;0.00;0.62;6.50;5.33;;;22.50;26.00;;;;;;2256174;61;20359;-64
2023/02/21 12:28:04;0.00;0.00;0.62;0.00;0.00;0.62;6.33;5.40;;;22.50;26.00;;;;;;2255025;61;20358;-64
2023/02/21 12:31:02;0.00;0.00;0.62;0.00;0.00;0.62;6.07;5.17;;;22.50;26.10;;;;;;2255625;61;20434;-64
2023/02/21 12:33:42;0.00;0.00;0.62;0.00;0.00;0.62;6.53;5.40;;;22.50;26.10;;;;;;2255730;61;20527;-64
2023/02/21 12:36:25;0.00;0.00;0.62;0.00;0.00;0.62;5.60;5.00;;;22.60;26.20;;;;;;2255795;61;20686;-63
2023/02/21 12:39:10;0.00;0.00;0.62;0.00;0.00;0.62;5.60;4.93;;;22.60;26.20;;;;;;2256028;61;20455;-66
2023/02/21 12:41:57;0.00;0.00;0.62;0.00;0.00;0.62;6.30;5.43;;;22.60;26.20;;;;;;2255369;61;20359;-62
2023/02/21 12:44:33;0.00;0.00;0.62;0.00;0.00;0.62;5.53;4.93;;;22.60;26.20;;;;;;2255410;61;20358;-63
2023/02/21 12:47:06;0.00;0.00;0.62;0.00;0.00;0.62;5.40;4.83;;;22.60;26.20;;;;;;2256362;61;20351;-62
2023/02/21 12:49:43;0.00;0.00;0.62;0.00;0.00;0.62;6.40;5.30;;;22.70;26.20;;;;;;2255027;61;20351;-64
2023/02/21 12:52:17;0.00;0.00;0.62;0.00;0.00;0.62;6.73;4.83;;;22.70;26.20;;;;;;2255665;61;20373;-65
2023/02/21 12:54:55;0.00;0.00;0.62;0.00;0.00;0.62;5.20;4.70;;;22.70;26.20;;;;;;2256428;61;20709;-63
2023/02/21 12:57:29;0.00;0.00;0.62;0.00;0.00;0.62;5.80;4.37;;;22.70;26.20;;;;;;2255612;61;20359;-63
2023/02/21 13:00:11;0.00;0.00;0.62;0.00;0.00;0.62;5.33;4.60;;;22.70;26.20;;;;;;2255900;61;20362;-63
2023/02/21 13:02:48;0.00;0.00;0.62;0.00;0.00;0.62;6.27;5.67;;;22.80;26.20;;;;;;2256078;61;20462;-62
2023/02/21 13:05:19;0.00;0.00;0.62;0.00;0.00;0.62;6.20;5.07;;;22.80;26.20;;;;;;2255443;61;20445;-64
2023/02/21 13:07:52;0.00;0.00;0.62;0.00;0.00;0.62;6.20;5.60;;;22.80;26.20;;;;;;2256593;61;20362;-64
2023/02/21 13:10:25;0.00;0.00;0.62;0.00;0.00;0.62;6.43;5.77;;;22.80;26.20;;;;;;2255154;61;20911;-63
2023/02/21 13:12:59;0.00;0.00;0.62;0.00;0.00;0.62;5.03;4.53;;;22.80;26.20;;;;;;2254927;61;20382;-64
2023/02/21 13:15:28;0.00;0.00;0.62;0.00;0.00;0.62;5.30;4.80;;;22.90;26.30;;;;;;2256195;61;20382;-63
2023/02/21 13:18:04;0.00;0.00;0.62;0.00;0.00;0.62;5.60;5.00;;;22.90;26.30;;;;;;2256032;61;20354;-64